Terminal Aerodrome Forecast
Issued by NWS

Home | Current Version | Previous Version | Graphics & Text | Print | Product List | Glossary On
Versions: 1 2 3 4 5 6 7 8 9 10 11 12 13 14 15 16
324
FTUS43 KICT 260305 AAA
TAFSLN
TAF AMD
KSLN 260305Z 2603/2624 16012KT P6SM VCTS SCT040CB
      TEMPO 2603/2605 28025G35KT +TSRA BKN025CB
     FM260600 07010KT P6SM SCT120 WS020/18035KT
     FM261000 36010KT P6SM SCT050=

USA.gov is the U.S. government's official web portal to all federal, state and local government web resources and services.